Relatórios de METAR próximas

 

LPAR - Alverca, Portugal
Distance from station: SO 47km
Actualizado: 23/11/2017 17:00
NÃO Actual
Chuva fraca, Algumas Nuvens
Chuva fraca, Algumas Nuvens
 Vento de varies
Vento: varies 0 km/h
Temperatura: 17°C
Ponto de Orvalho: 16°C
Humidade: 94%
Barómetro: 1013 hPa
Resumo: Chuva fraca
Nuvens: Few Clouds
Visibilidade: 4 km
Cloud details: Few Clouds 152 m
Parc. Nublado 366 m
Few Clouds 610 m
2017/11/23 17:00 LPAR 231700Z /////KT 4000 -RA FEW005 SCT012 FEW020CB 17/16 Q1013
LPPT - Lisbon/Portela, Portugal
Distance from station: SO 61km
Actualizado: 24/11/2017 03:00
Parc. Nublado
Parc. Nublado
 Vento de SSO
Vento: SSO 6 km/h
Temperatura: 16°C
Ponto de Orvalho: 16°C
Humidade: 100%
Barómetro: 1017 hPa
Nuvens: Parc. Nublado
Visibilidade: 9 km
Cloud details: Parc. Nublado 152 m
Parc. Nublado 366 m
2017/11/24 03:00 LPPT 240300Z 21003KT 9000 SCT005 SCT012 16/16 Q1017
 
LPMT - Montijo (por-Afb, Portugal
Distance from station: SO 62km
Actualizado: 24/11/2017 03:00
Few Clouds
Few Clouds
 Vento de SSE
Vento: SSE 7 km/h
Temperatura: 16°C
Ponto de Orvalho: 15°C
Humidade: 94%
Barómetro: 1017 hPa
Nuvens: Few Clouds
Visibilidade: 10 km
Cloud details: Few Clouds 305 m
2017/11/24 03:00 LPMT 240300Z 15004KT 9999 FEW010 16/15 Q1017
LPST - Sintra/Granja (a, Portugal
Distance from station: OSO 72km
Actualizado: 23/11/2017 17:00
NÃO Actual
Rain drizzle, Muito Nublado
Rain drizzle, Muito Nublado
 Vento de SSE
Vento: SSE 24 km/h
Temperatura: 16°C
Ponto de Orvalho: 16°C
Humidade: 100%
Barómetro: 1012 hPa
Resumo: Rain Drizzle
Nuvens: Muito Nublado
Visibilidade: 2 km
Cloud details: Parc. Nublado 152 m
Muito Nublado 366 m
2017/11/23 17:00 LPST 231700Z 15013KT 2000 RADZ SCT005 BKN012 16/16 Q1012
 
LPMR - Monte Real(Por-A, Portugal
Distance from station: NNO 80km
Actualizado: 24/11/2017 03:00
Mist, Parc. Nublado
Mist, Parc. Nublado
 Vento de SSE
Vento: SSE 4 km/h
Temperatura: 15°C
Ponto de Orvalho: 15°C
Humidade: 100%
Barómetro: 1017 hPa
Resumo: Mist
Nuvens: Parc. Nublado
Visibilidade: 5 km
Cloud details: Parc. Nublado 549 m
2017/11/24 03:00 LPMR 240300Z 16002KT 5000 BR SCT018 15/15 Q1017
LPBJ - Beja (por/Ger-Af, Portugal
Distance from station: SSE 139km
Actualizado: 24/11/2017 03:00
Parc. Nublado
Parc. Nublado
 Vento de S
Vento: S 13 km/h
Temperatura: 14°C
Ponto de Orvalho: 14°C
Humidade: 100%
Barómetro: 1019 hPa
Nuvens: Parc. Nublado
Visibilidade: 10 km
Cloud details: Parc. Nublado 914 m
2017/11/24 03:00 LPBJ 240300Z 17007KT 9999 SCT030 14/14 Q1019